sensor_id;sensor_type;location;lat;lon;timestamp;P1;durP1;ratioP1;P2;durP2;ratioP2
795;SDS011;381;48.770;9.188;2022-12-20T00:02:42;12.17;;;10.93;;
795;SDS011;381;48.770;9.188;2022-12-20T00:07:45;12.53;;;11.20;;
795;SDS011;381;48.770;9.188;2022-12-20T00:12:48;12.33;;;11.13;;
795;SDS011;381;48.770;9.188;2022-12-20T00:17:50;11.90;;;10.70;;
795;SDS011;381;48.770;9.188;2022-12-20T00:22:52;11.33;;;10.33;;
795;SDS011;381;48.770;9.188;2022-12-20T00:27:56;12.13;;;11.03;;
795;SDS011;381;48.770;9.188;2022-12-20T00:32:58;11.87;;;10.63;;
795;SDS011;381;48.770;9.188;2022-12-20T00:38:00;34.20;;;23.10;;
795;SDS011;381;48.770;9.188;2022-12-20T00:43:03;17.07;;;15.10;;
795;SDS011;381;48.770;9.188;2022-12-20T00:48:06;57.80;;;34.50;;
795;SDS011;381;48.770;9.188;2022-12-20T00:53:08;35.73;;;24.77;;
795;SDS011;381;48.770;9.188;2022-12-20T00:58:11;17.73;;;15.93;;
795;SDS011;381;48.770;9.188;2022-12-20T01:03:14;33.47;;;22.50;;
795;SDS011;381;48.770;9.188;2022-12-20T01:08:16;36.67;;;24.40;;
795;SDS011;381;48.770;9.188;2022-12-20T01:13:20;15.17;;;13.77;;
795;SDS011;381;48.770;9.188;2022-12-20T01:18:22;31.47;;;22.63;;
795;SDS011;381;48.770;9.188;2022-12-20T01:23:24;18.50;;;15.50;;
795;SDS011;381;48.770;9.188;2022-12-20T01:28:27;33.17;;;21.77;;
795;SDS011;381;48.770;9.188;2022-12-20T01:33:30;14.27;;;12.87;;
795;SDS011;381;48.770;9.188;2022-12-20T01:38:32;40.00;;;21.50;;
795;SDS011;381;48.770;9.188;2022-12-20T01:43:47;48.03;;;21.63;;
795;SDS011;381;48.770;9.188;2022-12-20T01:48:51;16.27;;;14.60;;
795;SDS011;381;48.770;9.188;2022-12-20T01:53:57;16.60;;;15.00;;
795;SDS011;381;48.770;9.188;2022-12-20T01:59:05;15.67;;;14.17;;
795;SDS011;381;48.770;9.188;2022-12-20T02:04:09;15.30;;;13.83;;
795;SDS011;381;48.770;9.188;2022-12-20T02:09:11;14.33;;;12.97;;
795;SDS011;381;48.770;9.188;2022-12-20T02:14:17;17.00;;;15.50;;
795;SDS011;381;48.770;9.188;2022-12-20T02:25:24;17.07;;;15.27;;
795;SDS011;381;48.770;9.188;2022-12-20T02:30:45;16.40;;;14.80;;
795;SDS011;381;48.770;9.188;2022-12-20T02:35:49;15.57;;;14.10;;
795;SDS011;381;48.770;9.188;2022-12-20T02:40:52;16.23;;;14.67;;
795;SDS011;381;48.770;9.188;2022-12-20T02:45:59;15.23;;;13.83;;
795;SDS011;381;48.770;9.188;2022-12-20T02:51:03;16.33;;;14.80;;
795;SDS011;381;48.770;9.188;2022-12-20T02:56:08;15.80;;;14.37;;
795;SDS011;381;48.770;9.188;2022-12-20T03:01:16;16.30;;;14.70;;
795;SDS011;381;48.770;9.188;2022-12-20T03:06:23;15.73;;;14.40;;
795;SDS011;381;48.770;9.188;2022-12-20T03:11:25;17.37;;;15.77;;
795;SDS011;381;48.770;9.188;2022-12-20T03:16:29;15.53;;;14.10;;
795;SDS011;381;48.770;9.188;2022-12-20T03:21:34;15.90;;;14.20;;
795;SDS011;381;48.770;9.188;2022-12-20T03:26:38;17.30;;;15.60;;
795;SDS011;381;48.770;9.188;2022-12-20T03:31:43;16.93;;;15.43;;
795;SDS011;381;48.770;9.188;2022-12-20T03:36:45;17.67;;;15.83;;
795;SDS011;381;48.770;9.188;2022-12-20T03:41:48;17.57;;;15.87;;
795;SDS011;381;48.770;9.188;2022-12-20T03:46:53;16.70;;;15.20;;
795;SDS011;381;48.770;9.188;2022-12-20T03:51:55;17.77;;;15.97;;
795;SDS011;381;48.770;9.188;2022-12-20T03:56:57;16.07;;;14.47;;
795;SDS011;381;48.770;9.188;2022-12-20T04:02:01;16.27;;;14.67;;
795;SDS011;381;48.770;9.188;2022-12-20T04:07:05;17.60;;;15.87;;
795;SDS011;381;48.770;9.188;2022-12-20T04:12:10;15.97;;;14.47;;
795;SDS011;381;48.770;9.188;2022-12-20T04:17:14;15.63;;;14.03;;
795;SDS011;381;48.770;9.188;2022-12-20T04:22:17;17.40;;;15.60;;
795;SDS011;381;48.770;9.188;2022-12-20T04:27:25;15.77;;;14.27;;
795;SDS011;381;48.770;9.188;2022-12-20T04:32:31;14.20;;;12.87;;
795;SDS011;381;48.770;9.188;2022-12-20T04:37:34;14.23;;;13.03;;
795;SDS011;381;48.770;9.188;2022-12-20T04:42:37;15.77;;;14.27;;
795;SDS011;381;48.770;9.188;2022-12-20T04:47:41;14.80;;;13.40;;
795;SDS011;381;48.770;9.188;2022-12-20T04:52:46;14.80;;;13.40;;
795;SDS011;381;48.770;9.188;2022-12-20T04:58:06;14.87;;;13.47;;
795;SDS011;381;48.770;9.188;2022-12-20T05:03:14;14.17;;;12.87;;
795;SDS011;381;48.770;9.188;2022-12-20T05:08:16;13.73;;;12.30;;
795;SDS011;381;48.770;9.188;2022-12-20T05:13:20;15.23;;;13.83;;
795;SDS011;381;48.770;9.188;2022-12-20T05:18:23;15.23;;;13.60;;
795;SDS011;381;48.770;9.188;2022-12-20T05:23:32;14.17;;;12.87;;
795;SDS011;381;48.770;9.188;2022-12-20T05:28:56;12.97;;;11.77;;
795;SDS011;381;48.770;9.188;2022-12-20T05:34:03;11.90;;;10.90;;
795;SDS011;381;48.770;9.188;2022-12-20T05:39:08;12.10;;;11.10;;
795;SDS011;381;48.770;9.188;2022-12-20T05:44:14;12.07;;;10.80;;
795;SDS011;381;48.770;9.188;2022-12-20T05:49:21;12.33;;;11.23;;
795;SDS011;381;48.770;9.188;2022-12-20T05:54:23;13.67;;;12.47;;
795;SDS011;381;48.770;9.188;2022-12-20T05:59:48;13.20;;;12.10;;
795;SDS011;381;48.770;9.188;2022-12-20T06:04:54;12.93;;;11.83;;
795;SDS011;381;48.770;9.188;2022-12-20T06:09:58;11.20;;;10.10;;
795;SDS011;381;48.770;9.188;2022-12-20T06:15:12;11.57;;;10.47;;
795;SDS011;381;48.770;9.188;2022-12-20T06:20:17;13.80;;;12.50;;
795;SDS011;381;48.770;9.188;2022-12-20T06:25:22;14.10;;;12.70;;
795;SDS011;381;48.770;9.188;2022-12-20T06:30:26;12.33;;;11.03;;
795;SDS011;381;48.770;9.188;2022-12-20T06:35:45;12.77;;;11.60;;
795;SDS011;381;48.770;9.188;2022-12-20T06:40:50;12.40;;;11.10;;
795;SDS011;381;48.770;9.188;2022-12-20T06:45:52;10.97;;;9.90;;
795;SDS011;381;48.770;9.188;2022-12-20T06:50:56;11.20;;;10.20;;
795;SDS011;381;48.770;9.188;2022-12-20T06:56:00;12.00;;;10.90;;
795;SDS011;381;48.770;9.188;2022-12-20T07:01:05;12.43;;;11.10;;
795;SDS011;381;48.770;9.188;2022-12-20T07:06:14;11.80;;;10.70;;
795;SDS011;381;48.770;9.188;2022-12-20T07:11:16;13.40;;;12.07;;
795;SDS011;381;48.770;9.188;2022-12-20T07:16:18;13.27;;;12.10;;
795;SDS011;381;48.770;9.188;2022-12-20T07:21:22;13.17;;;11.87;;
795;SDS011;381;48.770;9.188;2022-12-20T07:26:24;13.60;;;12.10;;
795;SDS011;381;48.770;9.188;2022-12-20T07:31:26;16.30;;;12.50;;
795;SDS011;381;48.770;9.188;2022-12-20T07:36:29;14.07;;;12.67;;
795;SDS011;381;48.770;9.188;2022-12-20T07:41:31;12.73;;;11.53;;
795;SDS011;381;48.770;9.188;2022-12-20T07:46:38;13.57;;;11.73;;
795;SDS011;381;48.770;9.188;2022-12-20T07:51:42;13.60;;;11.30;;
795;SDS011;381;48.770;9.188;2022-12-20T07:56:47;12.23;;;11.03;;
795;SDS011;381;48.770;9.188;2022-12-20T08:01:52;12.33;;;11.13;;
795;SDS011;381;48.770;9.188;2022-12-20T08:06:56;11.10;;;10.10;;
795;SDS011;381;48.770;9.188;2022-12-20T08:12:00;12.10;;;10.90;;
795;SDS011;381;48.770;9.188;2022-12-20T08:17:02;11.43;;;10.23;;
795;SDS011;381;48.770;9.188;2022-12-20T08:22:06;11.30;;;10.10;;
795;SDS011;381;48.770;9.188;2022-12-20T08:27:08;11.83;;;10.03;;
795;SDS011;381;48.770;9.188;2022-12-20T08:32:10;11.40;;;10.30;;
795;SDS011;381;48.770;9.188;2022-12-20T08:37:16;10.27;;;9.27;;
795;SDS011;381;48.770;9.188;2022-12-20T08:42:18;11.73;;;10.00;;
795;SDS011;381;48.770;9.188;2022-12-20T08:47:20;10.90;;;9.80;;
795;SDS011;381;48.770;9.188;2022-12-20T08:52:23;9.60;;;8.70;;
795;SDS011;381;48.770;9.188;2022-12-20T08:57:25;10.03;;;9.10;;
795;SDS011;381;48.770;9.188;2022-12-20T09:02:27;10.70;;;9.43;;
795;SDS011;381;48.770;9.188;2022-12-20T09:07:31;9.50;;;8.70;;
795;SDS011;381;48.770;9.188;2022-12-20T09:12:35;9.10;;;7.43;;
795;SDS011;381;48.770;9.188;2022-12-20T09:17:38;10.30;;;7.80;;
795;SDS011;381;48.770;9.188;2022-12-20T09:22:41;7.93;;;7.10;;
795;SDS011;381;48.770;9.188;2022-12-20T09:27:43;8.67;;;7.87;;
795;SDS011;381;48.770;9.188;2022-12-20T09:32:45;7.87;;;7.17;;
795;SDS011;381;48.770;9.188;2022-12-20T09:37:49;11.00;;;9.80;;
795;SDS011;381;48.770;9.188;2022-12-20T09:42:51;10.63;;;9.27;;
795;SDS011;381;48.770;9.188;2022-12-20T09:47:53;8.90;;;7.90;;
795;SDS011;381;48.770;9.188;2022-12-20T09:53:01;8.97;;;8.00;;
795;SDS011;381;48.770;9.188;2022-12-20T09:58:17;11.60;;;8.40;;
795;SDS011;381;48.770;9.188;2022-12-20T10:03:30;11.30;;;8.30;;
795;SDS011;381;48.770;9.188;2022-12-20T10:08:39;9.50;;;8.50;;
795;SDS011;381;48.770;9.188;2022-12-20T10:13:49;11.77;;;7.87;;
795;SDS011;381;48.770;9.188;2022-12-20T10:19:02;11.57;;;10.40;;
795;SDS011;381;48.770;9.188;2022-12-20T10:24:23;9.10;;;8.23;;
795;SDS011;381;48.770;9.188;2022-12-20T10:29:28;8.73;;;7.97;;
795;SDS011;381;48.770;9.188;2022-12-20T10:34:30;9.77;;;8.07;;
795;SDS011;381;48.770;9.188;2022-12-20T10:39:40;8.43;;;6.20;;
795;SDS011;381;48.770;9.188;2022-12-20T10:44:43;11.73;;;7.13;;
795;SDS011;381;48.770;9.188;2022-12-20T10:49:45;10.47;;;5.80;;
795;SDS011;381;48.770;9.188;2022-12-20T10:54:49;6.90;;;6.20;;
795;SDS011;381;48.770;9.188;2022-12-20T10:59:52;8.10;;;7.10;;
795;SDS011;381;48.770;9.188;2022-12-20T11:04:58;8.67;;;7.07;;
795;SDS011;381;48.770;9.188;2022-12-20T11:10:08;14.33;;;12.97;;
795;SDS011;381;48.770;9.188;2022-12-20T11:15:20;15.80;;;13.00;;
795;SDS011;381;48.770;9.188;2022-12-20T11:20:24;8.70;;;7.80;;
795;SDS011;381;48.770;9.188;2022-12-20T11:25:38;22.23;;;16.90;;
795;SDS011;381;48.770;9.188;2022-12-20T11:30:53;8.73;;;7.87;;
795;SDS011;381;48.770;9.188;2022-12-20T11:36:10;11.20;;;7.53;;
795;SDS011;381;48.770;9.188;2022-12-20T11:41:22;8.50;;;7.70;;
795;SDS011;381;48.770;9.188;2022-12-20T11:46:40;17.87;;;12.70;;
795;SDS011;381;48.770;9.188;2022-12-20T11:51:52;9.90;;;8.90;;
795;SDS011;381;48.770;9.188;2022-12-20T11:57:09;11.50;;;10.20;;
795;SDS011;381;48.770;9.188;2022-12-20T12:02:17;10.73;;;9.73;;
795;SDS011;381;48.770;9.188;2022-12-20T12:07:28;9.63;;;8.63;;
795;SDS011;381;48.770;9.188;2022-12-20T12:12:35;9.37;;;8.53;;
795;SDS011;381;48.770;9.188;2022-12-20T12:17:43;11.40;;;8.60;;
795;SDS011;381;48.770;9.188;2022-12-20T12:22:47;8.73;;;7.93;;
795;SDS011;381;48.770;9.188;2022-12-20T12:27:52;8.03;;;7.20;;
795;SDS011;381;48.770;9.188;2022-12-20T12:32:56;13.60;;;7.70;;
795;SDS011;381;48.770;9.188;2022-12-20T12:38:06;8.83;;;7.73;;
795;SDS011;381;48.770;9.188;2022-12-20T12:48:50;10.87;;;7.93;;
795;SDS011;381;48.770;9.188;2022-12-20T12:54:02;11.60;;;8.17;;
795;SDS011;381;48.770;9.188;2022-12-20T13:04:54;12.90;;;6.10;;
795;SDS011;381;48.770;9.188;2022-12-20T13:09:57;6.53;;;5.87;;
795;SDS011;381;48.770;9.188;2022-12-20T13:15:00;6.73;;;6.10;;
795;SDS011;381;48.770;9.188;2022-12-20T13:20:14;7.30;;;5.90;;
795;SDS011;381;48.770;9.188;2022-12-20T13:25:27;6.80;;;6.20;;
795;SDS011;381;48.770;9.188;2022-12-20T13:30:30;7.13;;;5.70;;
795;SDS011;381;48.770;9.188;2022-12-20T13:35:43;6.50;;;5.30;;
795;SDS011;381;48.770;9.188;2022-12-20T13:40:58;7.20;;;5.63;;
795;SDS011;381;48.770;9.188;2022-12-20T13:46:04;5.33;;;4.80;;
795;SDS011;381;48.770;9.188;2022-12-20T13:51:16;4.83;;;4.40;;
795;SDS011;381;48.770;9.188;2022-12-20T13:56:34;4.60;;;4.20;;
795;SDS011;381;48.770;9.188;2022-12-20T14:01:46;7.57;;;6.87;;
795;SDS011;381;48.770;9.188;2022-12-20T14:06:51;4.83;;;4.13;;
795;SDS011;381;48.770;9.188;2022-12-20T14:12:01;17.37;;;13.30;;
795;SDS011;381;48.770;9.188;2022-12-20T14:17:15;13.40;;;11.47;;
795;SDS011;381;48.770;9.188;2022-12-20T14:22:21;10.13;;;8.80;;
795;SDS011;381;48.770;9.188;2022-12-20T14:27:23;5.37;;;4.80;;
795;SDS011;381;48.770;9.188;2022-12-20T14:32:30;7.10;;;5.80;;
795;SDS011;381;48.770;9.188;2022-12-20T14:37:34;5.77;;;5.27;;
795;SDS011;381;48.770;9.188;2022-12-20T14:42:38;9.63;;;8.00;;
795;SDS011;381;48.770;9.188;2022-12-20T14:47:46;9.47;;;7.97;;
795;SDS011;381;48.770;9.188;2022-12-20T14:52:51;12.37;;;7.60;;
795;SDS011;381;48.770;9.188;2022-12-20T14:57:55;9.13;;;6.33;;
795;SDS011;381;48.770;9.188;2022-12-20T15:02:59;6.80;;;6.20;;
795;SDS011;381;48.770;9.188;2022-12-20T15:08:11;6.60;;;6.00;;
795;SDS011;381;48.770;9.188;2022-12-20T15:13:15;6.10;;;5.60;;
795;SDS011;381;48.770;9.188;2022-12-20T15:18:18;8.70;;;7.50;;
795;SDS011;381;48.770;9.188;2022-12-20T15:23:23;7.83;;;6.50;;
795;SDS011;381;48.770;9.188;2022-12-20T15:28:25;7.10;;;6.50;;
795;SDS011;381;48.770;9.188;2022-12-20T15:33:29;7.73;;;7.00;;
795;SDS011;381;48.770;9.188;2022-12-20T15:38:34;6.90;;;6.30;;
795;SDS011;381;48.770;9.188;2022-12-20T15:43:37;10.30;;;7.30;;
795;SDS011;381;48.770;9.188;2022-12-20T15:48:39;7.60;;;6.90;;
795;SDS011;381;48.770;9.188;2022-12-20T15:53:43;8.77;;;7.97;;
795;SDS011;381;48.770;9.188;2022-12-20T15:58:45;8.70;;;7.90;;
795;SDS011;381;48.770;9.188;2022-12-20T16:03:47;9.70;;;7.63;;
795;SDS011;381;48.770;9.188;2022-12-20T16:08:51;7.80;;;7.20;;
795;SDS011;381;48.770;9.188;2022-12-20T16:13:54;8.07;;;7.27;;
795;SDS011;381;48.770;9.188;2022-12-20T16:18:56;9.57;;;8.27;;
795;SDS011;381;48.770;9.188;2022-12-20T16:24:00;9.37;;;7.70;;
795;SDS011;381;48.770;9.188;2022-12-20T16:29:02;10.37;;;8.23;;
795;SDS011;381;48.770;9.188;2022-12-20T16:34:05;10.93;;;9.00;;
795;SDS011;381;48.770;9.188;2022-12-20T16:39:11;9.50;;;8.50;;
795;SDS011;381;48.770;9.188;2022-12-20T16:44:14;8.90;;;8.00;;
795;SDS011;381;48.770;9.188;2022-12-20T16:49:17;10.87;;;8.10;;
795;SDS011;381;48.770;9.188;2022-12-20T16:54:21;9.93;;;8.83;;
795;SDS011;381;48.770;9.188;2022-12-20T16:59:23;9.87;;;8.97;;
795;SDS011;381;48.770;9.188;2022-12-20T17:04:25;11.33;;;10.13;;
795;SDS011;381;48.770;9.188;2022-12-20T17:09:29;27.70;;;20.30;;
795;SDS011;381;48.770;9.188;2022-12-20T17:14:31;15.53;;;13.47;;
795;SDS011;381;48.770;9.188;2022-12-20T17:19:33;7.73;;;7.03;;
795;SDS011;381;48.770;9.188;2022-12-20T17:24:37;10.93;;;7.80;;
795;SDS011;381;48.770;9.188;2022-12-20T17:29:39;8.70;;;7.90;;
795;SDS011;381;48.770;9.188;2022-12-20T17:34:41;17.43;;;12.23;;
795;SDS011;381;48.770;9.188;2022-12-20T17:39:44;6.63;;;6.10;;
795;SDS011;381;48.770;9.188;2022-12-20T17:44:46;9.17;;;6.30;;
795;SDS011;381;48.770;9.188;2022-12-20T17:49:49;5.30;;;4.80;;
795;SDS011;381;48.770;9.188;2022-12-20T17:54:52;6.17;;;5.67;;
795;SDS011;381;48.770;9.188;2022-12-20T17:59:54;4.07;;;3.77;;
795;SDS011;381;48.770;9.188;2022-12-20T18:04:57;6.10;;;4.57;;
795;SDS011;381;48.770;9.188;2022-12-20T18:10:01;5.47;;;4.87;;
795;SDS011;381;48.770;9.188;2022-12-20T18:15:03;6.40;;;4.80;;
795;SDS011;381;48.770;9.188;2022-12-20T18:20:08;5.33;;;4.90;;
795;SDS011;381;48.770;9.188;2022-12-20T18:25:12;6.60;;;6.00;;
795;SDS011;381;48.770;9.188;2022-12-20T18:30:17;10.10;;;7.77;;
795;SDS011;381;48.770;9.188;2022-12-20T18:35:19;6.70;;;5.60;;
795;SDS011;381;48.770;9.188;2022-12-20T18:40:22;8.63;;;7.80;;
795;SDS011;381;48.770;9.188;2022-12-20T18:45:25;9.10;;;7.83;;
795;SDS011;381;48.770;9.188;2022-12-20T18:50:28;8.80;;;7.70;;
795;SDS011;381;48.770;9.188;2022-12-20T18:55:32;8.37;;;7.50;;
795;SDS011;381;48.770;9.188;2022-12-20T19:00:37;10.87;;;7.10;;
795;SDS011;381;48.770;9.188;2022-12-20T19:05:39;9.27;;;7.50;;
795;SDS011;381;48.770;9.188;2022-12-20T19:10:42;11.27;;;9.70;;
795;SDS011;381;48.770;9.188;2022-12-20T19:15:44;10.00;;;8.10;;
795;SDS011;381;48.770;9.188;2022-12-20T19:20:47;8.23;;;7.47;;
795;SDS011;381;48.770;9.188;2022-12-20T19:25:50;8.13;;;7.37;;
795;SDS011;381;48.770;9.188;2022-12-20T19:30:53;7.17;;;6.10;;
795;SDS011;381;48.770;9.188;2022-12-20T19:35:55;6.03;;;5.30;;
795;SDS011;381;48.770;9.188;2022-12-20T19:40:58;5.87;;;5.37;;
795;SDS011;381;48.770;9.188;2022-12-20T19:46:01;6.00;;;5.40;;
795;SDS011;381;48.770;9.188;2022-12-20T19:51:03;6.67;;;6.07;;
795;SDS011;381;48.770;9.188;2022-12-20T19:56:10;6.37;;;5.70;;
795;SDS011;381;48.770;9.188;2022-12-20T20:01:14;8.27;;;7.40;;
795;SDS011;381;48.770;9.188;2022-12-20T20:06:17;6.10;;;5.47;;
795;SDS011;381;48.770;9.188;2022-12-20T20:11:21;9.30;;;8.43;;
795;SDS011;381;48.770;9.188;2022-12-20T20:16:23;7.40;;;6.80;;
795;SDS011;381;48.770;9.188;2022-12-20T20:21:25;11.63;;;9.33;;
795;SDS011;381;48.770;9.188;2022-12-20T20:26:29;10.83;;;9.77;;
795;SDS011;381;48.770;9.188;2022-12-20T20:31:31;11.20;;;9.77;;
795;SDS011;381;48.770;9.188;2022-12-20T20:36:33;11.10;;;10.00;;
795;SDS011;381;48.770;9.188;2022-12-20T20:41:36;8.73;;;7.20;;
795;SDS011;381;48.770;9.188;2022-12-20T20:46:38;9.83;;;8.93;;
795;SDS011;381;48.770;9.188;2022-12-20T20:51:40;11.07;;;9.17;;
795;SDS011;381;48.770;9.188;2022-12-20T20:56:44;13.53;;;12.13;;
795;SDS011;381;48.770;9.188;2022-12-20T21:01:46;9.50;;;8.70;;
795;SDS011;381;48.770;9.188;2022-12-20T21:06:48;10.37;;;9.03;;
795;SDS011;381;48.770;9.188;2022-12-20T21:11:51;9.20;;;8.30;;
795;SDS011;381;48.770;9.188;2022-12-20T21:16:54;12.03;;;9.50;;
795;SDS011;381;48.770;9.188;2022-12-20T21:21:56;9.93;;;7.77;;
795;SDS011;381;48.770;9.188;2022-12-20T21:26:59;8.20;;;7.60;;
795;SDS011;381;48.770;9.188;2022-12-20T21:32:01;12.40;;;8.13;;
795;SDS011;381;48.770;9.188;2022-12-20T21:37:03;9.53;;;8.67;;
795;SDS011;381;48.770;9.188;2022-12-20T21:42:07;8.03;;;7.33;;
795;SDS011;381;48.770;9.188;2022-12-20T21:47:09;9.90;;;8.67;;
795;SDS011;381;48.770;9.188;2022-12-20T21:52:12;9.23;;;7.77;;
795;SDS011;381;48.770;9.188;2022-12-20T21:57:15;9.30;;;8.40;;
795;SDS011;381;48.770;9.188;2022-12-20T22:02:17;9.30;;;8.50;;
795;SDS011;381;48.770;9.188;2022-12-20T22:07:19;9.47;;;8.57;;
795;SDS011;381;48.770;9.188;2022-12-20T22:12:24;11.63;;;10.43;;
795;SDS011;381;48.770;9.188;2022-12-20T22:17:27;10.20;;;8.30;;
795;SDS011;381;48.770;9.188;2022-12-20T22:22:29;9.90;;;8.97;;
795;SDS011;381;48.770;9.188;2022-12-20T22:27:32;9.60;;;8.80;;
795;SDS011;381;48.770;9.188;2022-12-20T22:32:34;10.03;;;9.17;;
795;SDS011;381;48.770;9.188;2022-12-20T22:37:36;10.07;;;9.13;;
795;SDS011;381;48.770;9.188;2022-12-20T22:42:40;10.00;;;9.00;;
795;SDS011;381;48.770;9.188;2022-12-20T22:47:42;9.53;;;8.60;;
795;SDS011;381;48.770;9.188;2022-12-20T22:52:45;9.83;;;8.97;;
795;SDS011;381;48.770;9.188;2022-12-20T22:57:48;9.20;;;8.40;;
795;SDS011;381;48.770;9.188;2022-12-20T23:02:50;7.80;;;7.10;;
795;SDS011;381;48.770;9.188;2022-12-20T23:07:52;7.10;;;6.50;;
795;SDS011;381;48.770;9.188;2022-12-20T23:12:56;7.50;;;6.80;;
795;SDS011;381;48.770;9.188;2022-12-20T23:18:15;10.47;;;7.53;;
795;SDS011;381;48.770;9.188;2022-12-20T23:23:17;10.90;;;9.90;;
795;SDS011;381;48.770;9.188;2022-12-20T23:28:21;7.10;;;6.50;;
795;SDS011;381;48.770;9.188;2022-12-20T23:33:23;9.03;;;8.20;;
795;SDS011;381;48.770;9.188;2022-12-20T23:38:25;6.60;;;6.00;;
795;SDS011;381;48.770;9.188;2022-12-20T23:43:29;6.67;;;6.07;;
795;SDS011;381;48.770;9.188;2022-12-20T23:48:31;6.83;;;6.23;;
795;SDS011;381;48.770;9.188;2022-12-20T23:53:34;6.60;;;6.00;;
795;SDS011;381;48.770;9.188;2022-12-20T23:58:38;7.00;;;6.50;;
